sensor_id;sensor_type;location;lat;lon;timestamp;P1;durP1;ratioP1;P2;durP2;ratioP2
57433;SDS011;43277;52.672;6.984;2022-07-18T00:01:00;12.88;;;7.75;;
57433;SDS011;43277;52.672;6.984;2022-07-18T00:03:26;10.80;;;7.35;;
57433;SDS011;43277;52.672;6.984;2022-07-18T00:05:52;13.02;;;8.15;;
57433;SDS011;43277;52.672;6.984;2022-07-18T00:08:17;11.45;;;7.40;;
57433;SDS011;43277;52.672;6.984;2022-07-18T00:10:43;12.70;;;8.02;;
57433;SDS011;43277;52.672;6.984;2022-07-18T00:13:08;10.30;;;7.70;;
57433;SDS011;43277;52.672;6.984;2022-07-18T00:15:35;10.40;;;8.20;;
57433;SDS011;43277;52.672;6.984;2022-07-18T00:18:01;11.38;;;7.70;;
57433;SDS011;43277;52.672;6.984;2022-07-18T00:20:28;12.23;;;7.28;;
57433;SDS011;43277;52.672;6.984;2022-07-18T00:22:54;12.95;;;7.70;;
57433;SDS011;43277;52.672;6.984;2022-07-18T00:25:20;11.55;;;7.80;;
57433;SDS011;43277;52.672;6.984;2022-07-18T00:27:46;10.68;;;7.72;;
57433;SDS011;43277;52.672;6.984;2022-07-18T00:30:11;11.13;;;7.50;;
57433;SDS011;43277;52.672;6.984;2022-07-18T00:32:37;11.75;;;7.80;;
57433;SDS011;43277;52.672;6.984;2022-07-18T00:35:03;12.32;;;7.32;;
57433;SDS011;43277;52.672;6.984;2022-07-18T00:37:29;11.00;;;7.15;;
57433;SDS011;43277;52.672;6.984;2022-07-18T00:39:54;12.50;;;7.88;;
57433;SDS011;43277;52.672;6.984;2022-07-18T00:42:20;12.07;;;7.50;;
57433;SDS011;43277;52.672;6.984;2022-07-18T00:44:46;10.57;;;7.53;;
57433;SDS011;43277;52.672;6.984;2022-07-18T00:47:11;10.30;;;7.93;;
57433;SDS011;43277;52.672;6.984;2022-07-18T00:49:37;12.95;;;8.10;;
57433;SDS011;43277;52.672;6.984;2022-07-18T00:52:03;13.20;;;8.13;;
57433;SDS011;43277;52.672;6.984;2022-07-18T00:54:29;11.25;;;8.57;;
57433;SDS011;43277;52.672;6.984;2022-07-18T00:56:57;12.32;;;9.00;;
57433;SDS011;43277;52.672;6.984;2022-07-18T00:59:24;11.93;;;8.40;;
57433;SDS011;43277;52.672;6.984;2022-07-18T01:02:09;11.30;;;7.72;;
57433;SDS011;43277;52.672;6.984;2022-07-18T01:04:36;11.85;;;8.05;;
57433;SDS011;43277;52.672;6.984;2022-07-18T01:07:01;14.20;;;8.82;;
57433;SDS011;43277;52.672;6.984;2022-07-18T01:09:27;12.10;;;9.10;;
57433;SDS011;43277;52.672;6.984;2022-07-18T01:11:53;12.02;;;8.32;;
57433;SDS011;43277;52.672;6.984;2022-07-18T01:14:18;12.88;;;8.88;;
57433;SDS011;43277;52.672;6.984;2022-07-18T01:16:44;18.92;;;9.15;;
57433;SDS011;43277;52.672;6.984;2022-07-18T01:19:10;13.85;;;9.43;;
57433;SDS011;43277;52.672;6.984;2022-07-18T01:21:36;11.93;;;8.43;;
57433;SDS011;43277;52.672;6.984;2022-07-18T01:24:02;14.60;;;8.63;;
57433;SDS011;43277;52.672;6.984;2022-07-18T01:26:28;13.43;;;8.50;;
57433;SDS011;43277;52.672;6.984;2022-07-18T01:28:54;14.27;;;9.35;;
57433;SDS011;43277;52.672;6.984;2022-07-18T01:31:20;13.75;;;9.68;;
57433;SDS011;43277;52.672;6.984;2022-07-18T01:33:45;12.57;;;8.63;;
57433;SDS011;43277;52.672;6.984;2022-07-18T01:36:11;11.65;;;8.77;;
57433;SDS011;43277;52.672;6.984;2022-07-18T01:38:37;12.02;;;8.70;;
57433;SDS011;43277;52.672;6.984;2022-07-18T01:41:02;10.40;;;8.45;;
57433;SDS011;43277;52.672;6.984;2022-07-18T01:43:28;11.82;;;8.35;;
57433;SDS011;43277;52.672;6.984;2022-07-18T01:45:54;12.02;;;8.80;;
57433;SDS011;43277;52.672;6.984;2022-07-18T01:48:20;12.88;;;8.88;;
57433;SDS011;43277;52.672;6.984;2022-07-18T01:50:48;12.10;;;8.80;;
57433;SDS011;43277;52.672;6.984;2022-07-18T01:53:14;14.10;;;9.20;;
57433;SDS011;43277;52.672;6.984;2022-07-18T01:55:39;13.50;;;9.48;;
57433;SDS011;43277;52.672;6.984;2022-07-18T01:58:05;14.40;;;9.13;;
57433;SDS011;43277;52.672;6.984;2022-07-18T02:00:31;12.32;;;9.70;;
57433;SDS011;43277;52.672;6.984;2022-07-18T02:02:56;12.02;;;9.35;;
57433;SDS011;43277;52.672;6.984;2022-07-18T02:05:22;11.50;;;8.75;;
57433;SDS011;43277;52.672;6.984;2022-07-18T02:07:47;15.68;;;9.68;;
57433;SDS011;43277;52.672;6.984;2022-07-18T02:10:14;12.77;;;9.45;;
57433;SDS011;43277;52.672;6.984;2022-07-18T02:12:42;15.40;;;10.27;;
57433;SDS011;43277;52.672;6.984;2022-07-18T02:15:08;13.52;;;10.07;;
57433;SDS011;43277;52.672;6.984;2022-07-18T02:17:35;15.15;;;9.07;;
57433;SDS011;43277;52.672;6.984;2022-07-18T02:20:02;14.40;;;9.07;;
57433;SDS011;43277;52.672;6.984;2022-07-18T02:22:33;12.63;;;9.23;;
57433;SDS011;43277;52.672;6.984;2022-07-18T02:24:58;16.55;;;10.15;;
57433;SDS011;43277;52.672;6.984;2022-07-18T02:27:24;14.27;;;10.18;;
57433;SDS011;43277;52.672;6.984;2022-07-18T02:29:50;13.13;;;9.82;;
57433;SDS011;43277;52.672;6.984;2022-07-18T02:32:16;13.68;;;9.85;;
57433;SDS011;43277;52.672;6.984;2022-07-18T02:34:42;12.98;;;9.60;;
57433;SDS011;43277;52.672;6.984;2022-07-18T02:37:08;14.40;;;9.85;;
57433;SDS011;43277;52.672;6.984;2022-07-18T02:39:33;13.30;;;10.38;;
57433;SDS011;43277;52.672;6.984;2022-07-18T02:41:59;16.55;;;10.50;;
57433;SDS011;43277;52.672;6.984;2022-07-18T02:44:25;14.60;;;9.85;;
57433;SDS011;43277;52.672;6.984;2022-07-18T02:46:51;15.35;;;9.70;;
57433;SDS011;43277;52.672;6.984;2022-07-18T02:49:17;11.82;;;8.95;;
57433;SDS011;43277;52.672;6.984;2022-07-18T02:51:58;11.35;;;9.13;;
57433;SDS011;43277;52.672;6.984;2022-07-18T02:54:26;13.52;;;9.93;;
57433;SDS011;43277;52.672;6.984;2022-07-18T02:56:53;13.73;;;9.50;;
57433;SDS011;43277;52.672;6.984;2022-07-18T02:59:19;15.57;;;10.02;;
57433;SDS011;43277;52.672;6.984;2022-07-18T03:01:44;15.43;;;10.05;;
57433;SDS011;43277;52.672;6.984;2022-07-18T03:04:10;12.55;;;10.23;;
57433;SDS011;43277;52.672;6.984;2022-07-18T03:06:36;12.52;;;9.23;;
57433;SDS011;43277;52.672;6.984;2022-07-18T03:09:02;13.55;;;9.52;;
57433;SDS011;43277;52.672;6.984;2022-07-18T03:11:29;14.60;;;9.88;;
57433;SDS011;43277;52.672;6.984;2022-07-18T03:13:54;12.45;;;9.30;;
57433;SDS011;43277;52.672;6.984;2022-07-18T03:16:20;14.82;;;9.90;;
57433;SDS011;43277;52.672;6.984;2022-07-18T03:18:46;14.45;;;9.27;;
57433;SDS011;43277;52.672;6.984;2022-07-18T03:21:11;14.63;;;9.90;;
57433;SDS011;43277;52.672;6.984;2022-07-18T03:23:37;13.40;;;9.80;;
57433;SDS011;43277;52.672;6.984;2022-07-18T03:26:03;13.50;;;10.13;;
57433;SDS011;43277;52.672;6.984;2022-07-18T03:28:28;14.00;;;9.30;;
57433;SDS011;43277;52.672;6.984;2022-07-18T03:30:54;13.88;;;10.02;;
57433;SDS011;43277;52.672;6.984;2022-07-18T03:33:20;12.30;;;9.73;;
57433;SDS011;43277;52.672;6.984;2022-07-18T03:35:45;14.50;;;10.15;;
57433;SDS011;43277;52.672;6.984;2022-07-18T03:38:11;11.90;;;9.63;;
57433;SDS011;43277;52.672;6.984;2022-07-18T03:40:36;12.27;;;9.20;;
57433;SDS011;43277;52.672;6.984;2022-07-18T03:43:02;14.82;;;9.95;;
57433;SDS011;43277;52.672;6.984;2022-07-18T03:45:27;14.77;;;10.15;;
57433;SDS011;43277;52.672;6.984;2022-07-18T03:47:53;13.80;;;9.52;;
57433;SDS011;43277;52.672;6.984;2022-07-18T03:50:20;11.68;;;9.52;;
57433;SDS011;43277;52.672;6.984;2022-07-18T03:52:45;13.43;;;9.85;;
57433;SDS011;43277;52.672;6.984;2022-07-18T03:55:11;14.63;;;9.75;;
57433;SDS011;43277;52.672;6.984;2022-07-18T03:57:37;12.43;;;9.63;;
57433;SDS011;43277;52.672;6.984;2022-07-18T04:00:03;13.10;;;10.23;;
57433;SDS011;43277;52.672;6.984;2022-07-18T04:02:30;13.65;;;9.95;;
57433;SDS011;43277;52.672;6.984;2022-07-18T04:04:55;16.58;;;10.15;;
57433;SDS011;43277;52.672;6.984;2022-07-18T04:07:21;13.35;;;10.50;;
57433;SDS011;43277;52.672;6.984;2022-07-18T04:09:46;14.20;;;10.20;;
57433;SDS011;43277;52.672;6.984;2022-07-18T04:12:12;13.13;;;10.95;;
57433;SDS011;43277;52.672;6.984;2022-07-18T04:14:37;12.77;;;10.55;;
57433;SDS011;43277;52.672;6.984;2022-07-18T04:17:03;14.75;;;10.88;;
57433;SDS011;43277;52.672;6.984;2022-07-18T04:19:29;14.02;;;9.73;;
57433;SDS011;43277;52.672;6.984;2022-07-18T04:21:54;15.10;;;9.85;;
57433;SDS011;43277;52.672;6.984;2022-07-18T04:24:20;14.90;;;9.25;;
57433;SDS011;43277;52.672;6.984;2022-07-18T04:26:45;12.43;;;10.15;;
57433;SDS011;43277;52.672;6.984;2022-07-18T04:29:11;13.75;;;9.35;;
57433;SDS011;43277;52.672;6.984;2022-07-18T04:31:37;11.82;;;9.23;;
57433;SDS011;43277;52.672;6.984;2022-07-18T04:34:02;11.85;;;9.05;;
57433;SDS011;43277;52.672;6.984;2022-07-18T04:36:28;14.35;;;9.05;;
57433;SDS011;43277;52.672;6.984;2022-07-18T04:38:53;15.15;;;9.30;;
57433;SDS011;43277;52.672;6.984;2022-07-18T04:41:19;14.82;;;9.00;;
57433;SDS011;43277;52.672;6.984;2022-07-18T04:43:47;14.73;;;8.50;;
57433;SDS011;43277;52.672;6.984;2022-07-18T04:46:13;12.63;;;8.10;;
57433;SDS011;43277;52.672;6.984;2022-07-18T04:48:38;13.43;;;8.25;;
57433;SDS011;43277;52.672;6.984;2022-07-18T04:51:04;13.32;;;7.68;;
57433;SDS011;43277;52.672;6.984;2022-07-18T04:53:29;13.02;;;7.68;;
57433;SDS011;43277;52.672;6.984;2022-07-18T04:55:55;16.63;;;7.95;;
57433;SDS011;43277;52.672;6.984;2022-07-18T04:58:21;12.13;;;8.05;;
57433;SDS011;43277;52.672;6.984;2022-07-18T05:00:46;11.45;;;7.97;;
57433;SDS011;43277;52.672;6.984;2022-07-18T05:03:13;12.32;;;7.10;;
57433;SDS011;43277;52.672;6.984;2022-07-18T05:05:38;13.80;;;7.90;;
57433;SDS011;43277;52.672;6.984;2022-07-18T05:08:04;10.85;;;7.65;;
57433;SDS011;43277;52.672;6.984;2022-07-18T05:10:30;12.80;;;7.82;;
57433;SDS011;43277;52.672;6.984;2022-07-18T05:12:57;12.60;;;7.47;;
57433;SDS011;43277;52.672;6.984;2022-07-18T05:15:23;14.65;;;7.05;;
57433;SDS011;43277;52.672;6.984;2022-07-18T05:17:49;12.07;;;7.30;;
57433;SDS011;43277;52.672;6.984;2022-07-18T05:20:16;11.25;;;6.97;;
57433;SDS011;43277;52.672;6.984;2022-07-18T05:22:46;11.77;;;7.45;;
57433;SDS011;43277;52.672;6.984;2022-07-18T05:25:12;11.52;;;7.20;;
57433;SDS011;43277;52.672;6.984;2022-07-18T05:27:38;14.75;;;7.15;;
57433;SDS011;43277;52.672;6.984;2022-07-18T05:30:05;9.98;;;6.45;;
57433;SDS011;43277;52.672;6.984;2022-07-18T05:32:31;12.52;;;6.10;;
57433;SDS011;43277;52.672;6.984;2022-07-18T05:34:57;12.35;;;6.97;;
57433;SDS011;43277;52.672;6.984;2022-07-18T05:37:23;13.00;;;6.63;;
57433;SDS011;43277;52.672;6.984;2022-07-18T05:39:49;9.18;;;6.30;;
57433;SDS011;43277;52.672;6.984;2022-07-18T05:42:18;12.27;;;6.75;;
57433;SDS011;43277;52.672;6.984;2022-07-18T05:44:44;11.25;;;6.78;;
57433;SDS011;43277;52.672;6.984;2022-07-18T05:47:10;11.88;;;6.82;;
57433;SDS011;43277;52.672;6.984;2022-07-18T05:49:35;9.93;;;6.25;;
57433;SDS011;43277;52.672;6.984;2022-07-18T05:52:01;12.70;;;6.28;;
57433;SDS011;43277;52.672;6.984;2022-07-18T05:54:27;12.40;;;5.90;;
57433;SDS011;43277;52.672;6.984;2022-07-18T05:56:52;9.77;;;5.78;;
57433;SDS011;43277;52.672;6.984;2022-07-18T05:59:19;12.80;;;6.20;;
57433;SDS011;43277;52.672;6.984;2022-07-18T06:01:45;10.52;;;5.70;;
57433;SDS011;43277;52.672;6.984;2022-07-18T06:04:11;9.95;;;5.90;;
57433;SDS011;43277;52.672;6.984;2022-07-18T06:06:37;10.45;;;6.00;;
57433;SDS011;43277;52.672;6.984;2022-07-18T06:09:03;13.88;;;6.00;;
57433;SDS011;43277;52.672;6.984;2022-07-18T06:11:29;9.90;;;5.97;;
57433;SDS011;43277;52.672;6.984;2022-07-18T06:13:55;12.30;;;5.70;;
57433;SDS011;43277;52.672;6.984;2022-07-18T06:16:21;9.57;;;5.28;;
57433;SDS011;43277;52.672;6.984;2022-07-18T06:18:46;11.23;;;5.60;;
57433;SDS011;43277;52.672;6.984;2022-07-18T06:21:12;10.05;;;4.80;;
57433;SDS011;43277;52.672;6.984;2022-07-18T06:23:37;9.07;;;4.10;;
57433;SDS011;43277;52.672;6.984;2022-07-18T06:26:03;10.00;;;4.90;;
57433;SDS011;43277;52.672;6.984;2022-07-18T06:28:30;10.95;;;4.85;;
57433;SDS011;43277;52.672;6.984;2022-07-18T06:30:55;9.52;;;4.90;;
57433;SDS011;43277;52.672;6.984;2022-07-18T06:33:21;8.65;;;4.32;;
57433;SDS011;43277;52.672;6.984;2022-07-18T06:35:47;9.30;;;4.43;;
57433;SDS011;43277;52.672;6.984;2022-07-18T06:38:13;10.77;;;4.60;;
57433;SDS011;43277;52.672;6.984;2022-07-18T06:40:39;9.50;;;4.28;;
57433;SDS011;43277;52.672;6.984;2022-07-18T06:43:05;11.93;;;4.15;;
57433;SDS011;43277;52.672;6.984;2022-07-18T06:45:31;10.15;;;3.42;;
57433;SDS011;43277;52.672;6.984;2022-07-18T06:47:57;7.90;;;3.78;;
57433;SDS011;43277;52.672;6.984;2022-07-18T06:50:22;6.63;;;3.08;;
57433;SDS011;43277;52.672;6.984;2022-07-18T06:52:48;10.27;;;3.65;;
57433;SDS011;43277;52.672;6.984;2022-07-18T06:55:14;9.73;;;3.50;;
57433;SDS011;43277;52.672;6.984;2022-07-18T06:57:40;11.38;;;3.40;;
57433;SDS011;43277;52.672;6.984;2022-07-18T07:00:07;8.82;;;3.53;;
57433;SDS011;43277;52.672;6.984;2022-07-18T07:02:39;10.63;;;3.30;;
57433;SDS011;43277;52.672;6.984;2022-07-18T07:05:08;11.30;;;3.60;;
57433;SDS011;43277;52.672;6.984;2022-07-18T07:07:35;12.13;;;3.17;;
57433;SDS011;43277;52.672;6.984;2022-07-18T07:10:00;9.63;;;3.10;;
57433;SDS011;43277;52.672;6.984;2022-07-18T07:12:26;7.45;;;2.88;;
57433;SDS011;43277;52.672;6.984;2022-07-18T07:14:51;7.78;;;2.90;;
57433;SDS011;43277;52.672;6.984;2022-07-18T07:17:17;9.23;;;2.85;;
57433;SDS011;43277;52.672;6.984;2022-07-18T07:19:43;9.63;;;2.97;;
57433;SDS011;43277;52.672;6.984;2022-07-18T07:22:09;8.20;;;3.10;;
57433;SDS011;43277;52.672;6.984;2022-07-18T07:24:34;7.05;;;2.60;;
57433;SDS011;43277;52.672;6.984;2022-07-18T07:27:01;7.80;;;2.58;;
57433;SDS011;43277;52.672;6.984;2022-07-18T07:29:27;8.32;;;3.00;;
57433;SDS011;43277;52.672;6.984;2022-07-18T07:31:53;9.63;;;2.78;;
57433;SDS011;43277;52.672;6.984;2022-07-18T07:34:18;6.80;;;2.20;;
57433;SDS011;43277;52.672;6.984;2022-07-18T07:36:44;7.55;;;2.72;;
57433;SDS011;43277;52.672;6.984;2022-07-18T07:39:09;7.40;;;2.30;;
57433;SDS011;43277;52.672;6.984;2022-07-18T07:41:35;12.18;;;2.47;;
57433;SDS011;43277;52.672;6.984;2022-07-18T07:44:00;10.02;;;2.35;;
57433;SDS011;43277;52.672;6.984;2022-07-18T07:46:26;6.22;;;2.00;;
57433;SDS011;43277;52.672;6.984;2022-07-18T07:48:52;7.93;;;2.10;;
57433;SDS011;43277;52.672;6.984;2022-07-18T07:51:18;6.88;;;2.30;;
57433;SDS011;43277;52.672;6.984;2022-07-18T07:53:44;8.85;;;2.42;;
57433;SDS011;43277;52.672;6.984;2022-07-18T07:56:10;8.13;;;2.28;;
57433;SDS011;43277;52.672;6.984;2022-07-18T07:58:36;8.07;;;2.28;;
57433;SDS011;43277;52.672;6.984;2022-07-18T08:01:01;6.55;;;2.28;;
57433;SDS011;43277;52.672;6.984;2022-07-18T08:03:27;8.38;;;2.15;;
57433;SDS011;43277;52.672;6.984;2022-07-18T08:05:52;6.57;;;2.10;;
57433;SDS011;43277;52.672;6.984;2022-07-18T08:08:18;8.55;;;2.08;;
57433;SDS011;43277;52.672;6.984;2022-07-18T08:10:44;7.25;;;2.08;;
57433;SDS011;43277;52.672;6.984;2022-07-18T08:13:12;10.25;;;2.35;;
57433;SDS011;43277;52.672;6.984;2022-07-18T08:15:38;7.07;;;1.95;;
57433;SDS011;43277;52.672;6.984;2022-07-18T08:18:04;8.68;;;2.25;;
57433;SDS011;43277;52.672;6.984;2022-07-18T08:20:30;7.53;;;1.95;;
57433;SDS011;43277;52.672;6.984;2022-07-18T08:22:59;11.77;;;2.20;;
57433;SDS011;43277;52.672;6.984;2022-07-18T08:25:32;7.55;;;2.10;;
57433;SDS011;43277;52.672;6.984;2022-07-18T08:28:00;6.40;;;2.00;;
57433;SDS011;43277;52.672;6.984;2022-07-18T08:30:26;8.52;;;2.10;;
57433;SDS011;43277;52.672;6.984;2022-07-18T08:32:52;6.15;;;1.83;;
57433;SDS011;43277;52.672;6.984;2022-07-18T08:35:18;9.05;;;2.10;;
57433;SDS011;43277;52.672;6.984;2022-07-18T08:37:44;5.88;;;1.70;;
57433;SDS011;43277;52.672;6.984;2022-07-18T08:40:10;6.53;;;2.03;;
57433;SDS011;43277;52.672;6.984;2022-07-18T08:42:36;8.70;;;2.10;;
57433;SDS011;43277;52.672;6.984;2022-07-18T08:45:02;7.32;;;1.95;;
57433;SDS011;43277;52.672;6.984;2022-07-18T08:47:29;7.78;;;1.83;;
57433;SDS011;43277;52.672;6.984;2022-07-18T08:49:55;6.50;;;1.85;;
57433;SDS011;43277;52.672;6.984;2022-07-18T08:52:20;7.90;;;1.88;;
57433;SDS011;43277;52.672;6.984;2022-07-18T08:54:47;7.90;;;2.05;;
57433;SDS011;43277;52.672;6.984;2022-07-18T08:57:14;7.88;;;1.75;;
57433;SDS011;43277;52.672;6.984;2022-07-18T08:59:40;9.63;;;2.08;;
57433;SDS011;43277;52.672;6.984;2022-07-18T09:02:06;6.95;;;2.00;;
57433;SDS011;43277;52.672;6.984;2022-07-18T09:04:36;6.88;;;2.10;;
57433;SDS011;43277;52.672;6.984;2022-07-18T09:07:10;9.10;;;2.25;;
57433;SDS011;43277;52.672;6.984;2022-07-18T09:09:54;7.93;;;2.00;;
57433;SDS011;43277;52.672;6.984;2022-07-18T09:12:23;7.97;;;2.10;;
57433;SDS011;43277;52.672;6.984;2022-07-18T09:14:50;8.65;;;2.33;;
57433;SDS011;43277;52.672;6.984;2022-07-18T09:17:18;7.93;;;2.40;;
57433;SDS011;43277;52.672;6.984;2022-07-18T09:22:29;7.53;;;2.17;;
57433;SDS011;43277;52.672;6.984;2022-07-18T09:25:10;6.85;;;1.83;;
57433;SDS011;43277;52.672;6.984;2022-07-18T09:27:38;10.23;;;2.25;;
57433;SDS011;43277;52.672;6.984;2022-07-18T09:30:17;10.93;;;2.65;;
57433;SDS011;43277;52.672;6.984;2022-07-18T09:35:29;9.52;;;2.60;;
57433;SDS011;43277;52.672;6.984;2022-07-18T09:38:07;7.88;;;2.45;;
57433;SDS011;43277;52.672;6.984;2022-07-18T09:40:35;9.20;;;2.35;;
57433;SDS011;43277;52.672;6.984;2022-07-18T09:43:08;7.43;;;2.50;;
57433;SDS011;43277;52.672;6.984;2022-07-18T09:45:37;9.20;;;2.22;;
57433;SDS011;43277;52.672;6.984;2022-07-18T09:48:06;10.10;;;2.45;;
57433;SDS011;43277;52.672;6.984;2022-07-18T09:50:37;10.30;;;2.50;;
57433;SDS011;43277;52.672;6.984;2022-07-18T09:53:17;8.90;;;3.00;;
57433;SDS011;43277;52.672;6.984;2022-07-18T09:58:19;9.80;;;2.60;;
57433;SDS011;43277;52.672;6.984;2022-07-18T10:00:50;9.13;;;2.83;;
57433;SDS011;43277;52.672;6.984;2022-07-18T10:03:17;7.53;;;2.70;;
57433;SDS011;43277;52.672;6.984;2022-07-18T10:05:44;8.73;;;2.53;;
57433;SDS011;43277;52.672;6.984;2022-07-18T10:08:17;8.23;;;2.63;;
57433;SDS011;43277;52.672;6.984;2022-07-18T10:10:45;9.30;;;2.80;;
57433;SDS011;43277;52.672;6.984;2022-07-18T10:13:12;10.02;;;2.70;;
57433;SDS011;43277;52.672;6.984;2022-07-18T10:15:40;9.32;;;2.50;;
57433;SDS011;43277;52.672;6.984;2022-07-18T10:18:07;7.40;;;2.40;;
57433;SDS011;43277;52.672;6.984;2022-07-18T10:20:39;11.50;;;2.38;;
57433;SDS011;43277;52.672;6.984;2022-07-18T10:23:09;7.05;;;2.40;;
57433;SDS011;43277;52.672;6.984;2022-07-18T10:25:41;7.40;;;2.30;;
57433;SDS011;43277;52.672;6.984;2022-07-18T10:28:08;7.68;;;2.30;;
57433;SDS011;43277;52.672;6.984;2022-07-18T10:33:35;10.32;;;2.50;;
57433;SDS011;43277;52.672;6.984;2022-07-18T10:57:31;7.00;;;2.55;;
57433;SDS011;43277;52.672;6.984;2022-07-18T11:02:42;6.40;;;2.40;;
57433;SDS011;43277;52.672;6.984;2022-07-18T11:15:53;10.45;;;2.90;;
57433;SDS011;43277;52.672;6.984;2022-07-18T11:19:14;5.82;;;2.58;;
57433;SDS011;43277;52.672;6.984;2022-07-18T11:24:05;7.13;;;2.53;;
57433;SDS011;43277;52.672;6.984;2022-07-18T11:26:32;8.40;;;3.15;;
57433;SDS011;43277;52.672;6.984;2022-07-18T11:31:30;7.38;;;2.78;;
57433;SDS011;43277;52.672;6.984;2022-07-18T11:33:59;7.38;;;2.60;;
57433;SDS011;43277;52.672;6.984;2022-07-18T11:36:29;7.43;;;2.70;;
57433;SDS011;43277;52.672;6.984;2022-07-18T11:39:01;7.22;;;3.00;;
57433;SDS011;43277;52.672;6.984;2022-07-18T11:41:28;7.40;;;3.20;;
57433;SDS011;43277;52.672;6.984;2022-07-18T11:43:54;8.27;;;3.17;;
57433;SDS011;43277;52.672;6.984;2022-07-18T11:46:22;7.15;;;3.28;;
57433;SDS011;43277;52.672;6.984;2022-07-18T11:49:02;10.05;;;3.38;;
57433;SDS011;43277;52.672;6.984;2022-07-18T11:51:39;9.18;;;3.25;;
57433;SDS011;43277;52.672;6.984;2022-07-18T11:54:07;7.63;;;3.78;;
57433;SDS011;43277;52.672;6.984;2022-07-18T11:56:44;5.55;;;2.83;;
57433;SDS011;43277;52.672;6.984;2022-07-18T11:59:14;7.80;;;3.28;;
57433;SDS011;43277;52.672;6.984;2022-07-18T12:01:40;9.80;;;3.40;;
57433;SDS011;43277;52.672;6.984;2022-07-18T12:04:06;8.75;;;3.20;;
57433;SDS011;43277;52.672;6.984;2022-07-18T12:06:39;8.10;;;3.60;;
57433;SDS011;43277;52.672;6.984;2022-07-18T12:09:04;6.70;;;3.10;;
57433;SDS011;43277;52.672;6.984;2022-07-18T12:11:37;7.15;;;3.28;;
57433;SDS011;43277;52.672;6.984;2022-07-18T12:21:47;6.90;;;3.40;;
57433;SDS011;43277;52.672;6.984;2022-07-18T12:24:36;7.93;;;3.15;;
57433;SDS011;43277;52.672;6.984;2022-07-18T12:35:08;8.65;;;2.88;;
57433;SDS011;43277;52.672;6.984;2022-07-18T12:37:36;10.30;;;3.47;;
57433;SDS011;43277;52.672;6.984;2022-07-18T12:40:07;8.20;;;3.05;;
57433;SDS011;43277;52.672;6.984;2022-07-18T12:42:35;8.02;;;3.03;;
57433;SDS011;43277;52.672;6.984;2022-07-18T12:45:03;8.73;;;3.08;;
57433;SDS011;43277;52.672;6.984;2022-07-18T12:47:29;6.07;;;2.92;;
57433;SDS011;43277;52.672;6.984;2022-07-18T12:49:55;8.43;;;3.28;;
57433;SDS011;43277;52.672;6.984;2022-07-18T12:52:21;10.48;;;3.17;;
57433;SDS011;43277;52.672;6.984;2022-07-18T12:54:47;6.72;;;3.03;;
57433;SDS011;43277;52.672;6.984;2022-07-18T12:57:14;9.27;;;3.45;;
57433;SDS011;43277;52.672;6.984;2022-07-18T12:59:39;7.80;;;3.00;;
57433;SDS011;43277;52.672;6.984;2022-07-18T13:02:05;7.53;;;2.75;;
57433;SDS011;43277;52.672;6.984;2022-07-18T13:04:31;6.18;;;3.20;;
57433;SDS011;43277;52.672;6.984;2022-07-18T13:06:57;9.38;;;3.20;;
57433;SDS011;43277;52.672;6.984;2022-07-18T13:09:22;5.70;;;2.70;;
57433;SDS011;43277;52.672;6.984;2022-07-18T13:11:48;7.65;;;2.70;;
57433;SDS011;43277;52.672;6.984;2022-07-18T13:14:14;8.45;;;3.05;;
57433;SDS011;43277;52.672;6.984;2022-07-18T13:16:41;10.77;;;2.72;;
57433;SDS011;43277;52.672;6.984;2022-07-18T13:19:12;6.78;;;3.20;;
57433;SDS011;43277;52.672;6.984;2022-07-18T13:21:41;7.22;;;2.85;;
57433;SDS011;43277;52.672;6.984;2022-07-18T13:24:08;6.53;;;3.20;;
57433;SDS011;43277;52.672;6.984;2022-07-18T13:26:34;6.78;;;2.90;;
57433;SDS011;43277;52.672;6.984;2022-07-18T13:29:00;6.55;;;2.97;;
57433;SDS011;43277;52.672;6.984;2022-07-18T13:31:26;6.43;;;2.55;;
57433;SDS011;43277;52.672;6.984;2022-07-18T13:33:52;5.93;;;2.75;;
57433;SDS011;43277;52.672;6.984;2022-07-18T13:36:18;7.22;;;2.53;;
57433;SDS011;43277;52.672;6.984;2022-07-18T13:38:44;7.68;;;3.00;;
57433;SDS011;43277;52.672;6.984;2022-07-18T13:41:10;6.07;;;2.83;;
57433;SDS011;43277;52.672;6.984;2022-07-18T13:43:36;6.80;;;2.65;;
57433;SDS011;43277;52.672;6.984;2022-07-18T13:46:07;7.25;;;3.00;;
57433;SDS011;43277;52.672;6.984;2022-07-18T13:48:35;9.73;;;3.30;;
57433;SDS011;43277;52.672;6.984;2022-07-18T13:51:01;7.18;;;2.55;;
57433;SDS011;43277;52.672;6.984;2022-07-18T13:53:28;6.43;;;2.47;;
57433;SDS011;43277;52.672;6.984;2022-07-18T13:55:54;6.03;;;2.70;;
57433;SDS011;43277;52.672;6.984;2022-07-18T13:58:19;6.97;;;2.63;;
57433;SDS011;43277;52.672;6.984;2022-07-18T14:00:45;6.57;;;2.58;;
57433;SDS011;43277;52.672;6.984;2022-07-18T14:03:11;7.18;;;2.88;;
57433;SDS011;43277;52.672;6.984;2022-07-18T14:05:37;8.35;;;2.70;;
57433;SDS011;43277;52.672;6.984;2022-07-18T14:08:04;6.75;;;2.70;;
57433;SDS011;43277;52.672;6.984;2022-07-18T14:10:30;9.48;;;2.50;;
57433;SDS011;43277;52.672;6.984;2022-07-18T14:12:57;6.40;;;2.63;;
57433;SDS011;43277;52.672;6.984;2022-07-18T14:15:23;7.07;;;2.50;;
57433;SDS011;43277;52.672;6.984;2022-07-18T14:17:49;7.10;;;2.40;;
57433;SDS011;43277;52.672;6.984;2022-07-18T14:20:15;7.53;;;2.80;;
57433;SDS011;43277;52.672;6.984;2022-07-18T14:22:41;7.10;;;2.40;;
57433;SDS011;43277;52.672;6.984;2022-07-18T14:25:08;7.53;;;2.70;;
57433;SDS011;43277;52.672;6.984;2022-07-18T14:27:35;7.22;;;2.55;;
57433;SDS011;43277;52.672;6.984;2022-07-18T14:30:01;5.93;;;2.70;;
57433;SDS011;43277;52.672;6.984;2022-07-18T14:32:27;7.97;;;3.00;;
57433;SDS011;43277;52.672;6.984;2022-07-18T14:34:53;9.35;;;3.00;;
57433;SDS011;43277;52.672;6.984;2022-07-18T14:37:19;9.15;;;2.58;;
57433;SDS011;43277;52.672;6.984;2022-07-18T14:39:44;6.68;;;2.70;;
57433;SDS011;43277;52.672;6.984;2022-07-18T14:42:10;7.30;;;3.03;;
57433;SDS011;43277;52.672;6.984;2022-07-18T14:44:37;7.90;;;2.70;;
57433;SDS011;43277;52.672;6.984;2022-07-18T14:47:03;6.55;;;2.90;;
57433;SDS011;43277;52.672;6.984;2022-07-18T14:49:29;6.53;;;2.80;;
57433;SDS011;43277;52.672;6.984;2022-07-18T14:51:55;6.68;;;2.58;;
57433;SDS011;43277;52.672;6.984;2022-07-18T14:54:20;8.48;;;2.78;;
57433;SDS011;43277;52.672;6.984;2022-07-18T14:56:46;7.70;;;2.55;;
57433;SDS011;43277;52.672;6.984;2022-07-18T14:59:12;6.90;;;2.83;;
57433;SDS011;43277;52.672;6.984;2022-07-18T15:01:38;8.48;;;2.92;;
57433;SDS011;43277;52.672;6.984;2022-07-18T15:04:04;6.15;;;2.78;;
57433;SDS011;43277;52.672;6.984;2022-07-18T15:06:29;9.15;;;3.25;;
57433;SDS011;43277;52.672;6.984;2022-07-18T15:08:58;7.70;;;2.65;;
57433;SDS011;43277;52.672;6.984;2022-07-18T15:11:23;6.55;;;2.88;;
57433;SDS011;43277;52.672;6.984;2022-07-18T15:13:49;7.15;;;2.80;;
57433;SDS011;43277;52.672;6.984;2022-07-18T15:16:16;6.15;;;2.50;;
57433;SDS011;43277;52.672;6.984;2022-07-18T15:18:41;9.70;;;2.90;;
57433;SDS011;43277;52.672;6.984;2022-07-18T15:21:07;6.32;;;2.92;;
57433;SDS011;43277;52.672;6.984;2022-07-18T15:23:33;6.60;;;2.70;;
57433;SDS011;43277;52.672;6.984;2022-07-18T15:25:59;6.13;;;2.85;;
57433;SDS011;43277;52.672;6.984;2022-07-18T15:28:24;5.82;;;2.67;;
57433;SDS011;43277;52.672;6.984;2022-07-18T15:30:50;6.78;;;2.55;;
57433;SDS011;43277;52.672;6.984;2022-07-18T15:33:16;10.00;;;3.30;;
57433;SDS011;43277;52.672;6.984;2022-07-18T15:35:42;5.82;;;2.33;;
57433;SDS011;43277;52.672;6.984;2022-07-18T15:38:08;6.50;;;2.67;;
57433;SDS011;43277;52.672;6.984;2022-07-18T15:40:34;6.90;;;2.60;;
57433;SDS011;43277;52.672;6.984;2022-07-18T15:43:00;6.40;;;2.63;;
57433;SDS011;43277;52.672;6.984;2022-07-18T15:45:26;8.18;;;3.22;;